sensor_id;sensor_type;location;lat;lon;timestamp;P1;durP1;ratioP1;P2;durP2;ratioP2
10098;SDS011;5089;42.656;23.374;2022-09-04T00:00:59;9.37;;;7.30;;
10098;SDS011;5089;42.656;23.374;2022-09-04T00:03:37;8.63;;;7.47;;
10098;SDS011;5089;42.656;23.374;2022-09-04T00:06:11;9.17;;;7.63;;
10098;SDS011;5089;42.656;23.374;2022-09-04T00:08:54;10.73;;;7.40;;
10098;SDS011;5089;42.656;23.374;2022-09-04T00:11:35;10.03;;;7.40;;
10098;SDS011;5089;42.656;23.374;2022-09-04T00:14:16;8.60;;;7.20;;
10098;SDS011;5089;42.656;23.374;2022-09-04T00:16:59;8.90;;;7.07;;
10098;SDS011;5089;42.656;23.374;2022-09-04T00:19:36;7.30;;;6.53;;
10098;SDS011;5089;42.656;23.374;2022-09-04T00:22:12;9.13;;;6.47;;
10098;SDS011;5089;42.656;23.374;2022-09-04T00:24:50;10.90;;;7.20;;
10098;SDS011;5089;42.656;23.374;2022-09-04T00:27:24;7.50;;;6.47;;
10098;SDS011;5089;42.656;23.374;2022-09-04T00:29:58;7.90;;;7.10;;
10098;SDS011;5089;42.656;23.374;2022-09-04T00:32:33;8.77;;;7.43;;
10098;SDS011;5089;42.656;23.374;2022-09-04T00:35:07;9.43;;;7.93;;
10098;SDS011;5089;42.656;23.374;2022-09-04T00:37:41;9.20;;;7.20;;
10098;SDS011;5089;42.656;23.374;2022-09-04T00:40:19;8.93;;;7.30;;
10098;SDS011;5089;42.656;23.374;2022-09-04T00:46:09;7.87;;;7.10;;
10098;SDS011;5089;42.656;23.374;2022-09-04T00:48:59;9.37;;;7.13;;
10098;SDS011;5089;42.656;23.374;2022-09-04T00:51:46;7.30;;;6.60;;
10098;SDS011;5089;42.656;23.374;2022-09-04T00:54:30;7.07;;;6.27;;
10098;SDS011;5089;42.656;23.374;2022-09-04T00:57:39;6.57;;;5.97;;
10098;SDS011;5089;42.656;23.374;2022-09-04T01:00:14;6.13;;;5.63;;
10098;SDS011;5089;42.656;23.374;2022-09-04T01:06:02;5.90;;;5.30;;
10098;SDS011;5089;42.656;23.374;2022-09-04T01:08:46;5.33;;;4.93;;
10098;SDS011;5089;42.656;23.374;2022-09-04T01:11:29;5.80;;;5.27;;
10098;SDS011;5089;42.656;23.374;2022-09-04T01:14:08;9.70;;;5.17;;
10098;SDS011;5089;42.656;23.374;2022-09-04T01:16:40;7.23;;;4.83;;
10098;SDS011;5089;42.656;23.374;2022-09-04T01:19:14;5.93;;;4.63;;
10098;SDS011;5089;42.656;23.374;2022-09-04T01:22:09;7.40;;;5.30;;
10098;SDS011;5089;42.656;23.374;2022-09-04T01:24:51;5.30;;;4.90;;
10098;SDS011;5089;42.656;23.374;2022-09-04T01:27:27;6.13;;;5.60;;
10098;SDS011;5089;42.656;23.374;2022-09-04T01:30:03;5.73;;;5.23;;
10098;SDS011;5089;42.656;23.374;2022-09-04T01:32:36;5.30;;;4.90;;
10098;SDS011;5089;42.656;23.374;2022-09-04T01:35:13;5.30;;;4.80;;
10098;SDS011;5089;42.656;23.374;2022-09-04T01:37:51;5.43;;;4.93;;
10098;SDS011;5089;42.656;23.374;2022-09-04T01:40:32;5.53;;;5.03;;
10098;SDS011;5089;42.656;23.374;2022-09-04T01:43:05;5.20;;;4.77;;
10098;SDS011;5089;42.656;23.374;2022-09-04T01:45:45;5.67;;;5.17;;
10098;SDS011;5089;42.656;23.374;2022-09-04T01:48:34;5.10;;;4.67;;
10098;SDS011;5089;42.656;23.374;2022-09-04T01:51:10;5.60;;;4.93;;
10098;SDS011;5089;42.656;23.374;2022-09-04T01:53:45;7.73;;;4.80;;
10098;SDS011;5089;42.656;23.374;2022-09-04T01:56:27;5.37;;;4.90;;
10098;SDS011;5089;42.656;23.374;2022-09-04T01:59:03;6.13;;;5.50;;
10098;SDS011;5089;42.656;23.374;2022-09-04T02:01:37;5.83;;;4.97;;
10098;SDS011;5089;42.656;23.374;2022-09-04T02:04:11;6.87;;;5.07;;
10098;SDS011;5089;42.656;23.374;2022-09-04T02:06:47;6.10;;;5.40;;
10098;SDS011;5089;42.656;23.374;2022-09-04T02:09:24;7.07;;;5.30;;
10098;SDS011;5089;42.656;23.374;2022-09-04T02:12:03;7.47;;;5.20;;
10098;SDS011;5089;42.656;23.374;2022-09-04T02:14:39;6.07;;;5.30;;
10098;SDS011;5089;42.656;23.374;2022-09-04T02:17:16;6.50;;;5.40;;
10098;SDS011;5089;42.656;23.374;2022-09-04T02:19:55;6.23;;;5.70;;
10098;SDS011;5089;42.656;23.374;2022-09-04T02:22:37;5.70;;;5.20;;
10098;SDS011;5089;42.656;23.374;2022-09-04T02:25:13;7.10;;;5.03;;
10098;SDS011;5089;42.656;23.374;2022-09-04T02:27:51;5.70;;;5.20;;
10098;SDS011;5089;42.656;23.374;2022-09-04T02:30:26;8.07;;;5.00;;
10098;SDS011;5089;42.656;23.374;2022-09-04T02:33:01;8.77;;;5.83;;
10098;SDS011;5089;42.656;23.374;2022-09-04T02:35:38;6.90;;;6.20;;
10098;SDS011;5089;42.656;23.374;2022-09-04T02:38:13;7.10;;;6.07;;
10098;SDS011;5089;42.656;23.374;2022-09-04T02:40:49;7.37;;;6.47;;
10098;SDS011;5089;42.656;23.374;2022-09-04T02:43:24;8.20;;;6.13;;
10098;SDS011;5089;42.656;23.374;2022-09-04T02:46:03;8.00;;;6.37;;
10098;SDS011;5089;42.656;23.374;2022-09-04T02:48:39;9.43;;;7.37;;
10098;SDS011;5089;42.656;23.374;2022-09-04T02:51:18;9.57;;;7.50;;
10098;SDS011;5089;42.656;23.374;2022-09-04T02:53:54;10.00;;;7.53;;
10098;SDS011;5089;42.656;23.374;2022-09-04T02:56:30;7.07;;;6.37;;
10098;SDS011;5089;42.656;23.374;2022-09-04T03:02:09;9.70;;;6.93;;
10098;SDS011;5089;42.656;23.374;2022-09-04T03:04:47;7.40;;;6.70;;
10098;SDS011;5089;42.656;23.374;2022-09-04T03:07:20;10.97;;;6.30;;
10098;SDS011;5089;42.656;23.374;2022-09-04T03:09:56;7.20;;;6.33;;
10098;SDS011;5089;42.656;23.374;2022-09-04T03:12:33;6.87;;;6.17;;
10098;SDS011;5089;42.656;23.374;2022-09-04T03:15:09;6.93;;;6.13;;
10098;SDS011;5089;42.656;23.374;2022-09-04T03:17:46;7.47;;;6.67;;
10098;SDS011;5089;42.656;23.374;2022-09-04T03:20:20;10.83;;;6.47;;
10098;SDS011;5089;42.656;23.374;2022-09-04T03:22:50;10.30;;;7.00;;
10098;SDS011;5089;42.656;23.374;2022-09-04T03:25:25;12.17;;;7.30;;
10098;SDS011;5089;42.656;23.374;2022-09-04T03:28:01;8.87;;;6.50;;
10098;SDS011;5089;42.656;23.374;2022-09-04T03:30:28;8.30;;;7.17;;
10098;SDS011;5089;42.656;23.374;2022-09-04T03:33:04;9.83;;;7.10;;
10098;SDS011;5089;42.656;23.374;2022-09-04T03:35:39;11.37;;;6.97;;
10098;SDS011;5089;42.656;23.374;2022-09-04T03:38:15;8.30;;;5.83;;
10098;SDS011;5089;42.656;23.374;2022-09-04T03:40:49;6.47;;;5.87;;
10098;SDS011;5089;42.656;23.374;2022-09-04T03:46:16;7.03;;;6.33;;
10098;SDS011;5089;42.656;23.374;2022-09-04T03:48:59;7.53;;;6.73;;
10098;SDS011;5089;42.656;23.374;2022-09-04T03:51:37;7.47;;;6.77;;
10098;SDS011;5089;42.656;23.374;2022-09-04T03:54:21;8.47;;;6.83;;
10098;SDS011;5089;42.656;23.374;2022-09-04T03:57:08;7.87;;;7.10;;
10098;SDS011;5089;42.656;23.374;2022-09-04T03:59:53;9.00;;;6.60;;
10098;SDS011;5089;42.656;23.374;2022-09-04T04:02:32;9.77;;;7.07;;
10098;SDS011;5089;42.656;23.374;2022-09-04T04:05:25;10.60;;;7.40;;
10098;SDS011;5089;42.656;23.374;2022-09-04T04:11:09;8.50;;;7.30;;
10098;SDS011;5089;42.656;23.374;2022-09-04T04:16:43;8.10;;;7.30;;
10098;SDS011;5089;42.656;23.374;2022-09-04T04:19:27;8.77;;;7.57;;
10098;SDS011;5089;42.656;23.374;2022-09-04T04:22:16;8.70;;;7.73;;
10098;SDS011;5089;42.656;23.374;2022-09-04T04:24:58;11.33;;;8.27;;
10098;SDS011;5089;42.656;23.374;2022-09-04T04:27:45;10.73;;;8.37;;
10098;SDS011;5089;42.656;23.374;2022-09-04T04:30:27;11.33;;;8.70;;
10098;SDS011;5089;42.656;23.374;2022-09-04T04:33:09;12.80;;;8.80;;
10098;SDS011;5089;42.656;23.374;2022-09-04T04:35:49;11.77;;;8.40;;
10098;SDS011;5089;42.656;23.374;2022-09-04T04:38:32;11.07;;;9.23;;
10098;SDS011;5089;42.656;23.374;2022-09-04T04:41:11;11.40;;;8.83;;
10098;SDS011;5089;42.656;23.374;2022-09-04T04:43:49;10.30;;;9.20;;
10098;SDS011;5089;42.656;23.374;2022-09-04T04:46:26;10.47;;;9.03;;
10098;SDS011;5089;42.656;23.374;2022-09-04T04:49:05;11.30;;;8.73;;
10098;SDS011;5089;42.656;23.374;2022-09-04T04:51:55;9.30;;;8.33;;
10098;SDS011;5089;42.656;23.374;2022-09-04T04:54:44;12.00;;;9.03;;
10098;SDS011;5089;42.656;23.374;2022-09-04T04:57:31;10.13;;;8.53;;
10098;SDS011;5089;42.656;23.374;2022-09-04T05:00:06;11.37;;;10.17;;
10098;SDS011;5089;42.656;23.374;2022-09-04T05:02:41;11.47;;;9.37;;
10098;SDS011;5089;42.656;23.374;2022-09-04T05:05:19;10.00;;;9.00;;
10098;SDS011;5089;42.656;23.374;2022-09-04T05:07:54;11.40;;;9.73;;
10098;SDS011;5089;42.656;23.374;2022-09-04T05:10:30;11.07;;;9.10;;
10098;SDS011;5089;42.656;23.374;2022-09-04T05:13:08;10.17;;;9.10;;
10098;SDS011;5089;42.656;23.374;2022-09-04T05:15:47;9.80;;;8.83;;
10098;SDS011;5089;42.656;23.374;2022-09-04T05:18:21;13.70;;;9.43;;
10098;SDS011;5089;42.656;23.374;2022-09-04T05:20:55;9.90;;;8.77;;
10098;SDS011;5089;42.656;23.374;2022-09-04T05:23:31;12.57;;;11.37;;
10098;SDS011;5089;42.656;23.374;2022-09-04T05:26:10;12.50;;;9.33;;
10098;SDS011;5089;42.656;23.374;2022-09-04T05:28:53;13.40;;;10.50;;
10098;SDS011;5089;42.656;23.374;2022-09-04T05:31:28;17.87;;;11.27;;
10098;SDS011;5089;42.656;23.374;2022-09-04T05:34:01;20.13;;;13.57;;
10098;SDS011;5089;42.656;23.374;2022-09-04T05:36:35;11.67;;;9.47;;
10098;SDS011;5089;42.656;23.374;2022-09-04T05:39:13;19.33;;;12.97;;
10098;SDS011;5089;42.656;23.374;2022-09-04T05:41:55;29.47;;;18.27;;
10098;SDS011;5089;42.656;23.374;2022-09-04T05:44:34;10.73;;;9.00;;
10098;SDS011;5089;42.656;23.374;2022-09-04T05:47:11;11.00;;;8.70;;
10098;SDS011;5089;42.656;23.374;2022-09-04T05:52:59;11.03;;;7.80;;
10098;SDS011;5089;42.656;23.374;2022-09-04T05:55:42;9.00;;;8.10;;
10098;SDS011;5089;42.656;23.374;2022-09-04T05:58:31;7.93;;;6.93;;
10098;SDS011;5089;42.656;23.374;2022-09-04T06:01:16;6.20;;;5.70;;
10098;SDS011;5089;42.656;23.374;2022-09-04T06:06:50;10.83;;;7.60;;
10098;SDS011;5089;42.656;23.374;2022-09-04T06:09:31;9.50;;;8.00;;
10098;SDS011;5089;42.656;23.374;2022-09-04T06:15:23;10.97;;;6.97;;
10098;SDS011;5089;42.656;23.374;2022-09-04T06:18:02;9.50;;;8.40;;
10098;SDS011;5089;42.656;23.374;2022-09-04T06:20:51;8.70;;;7.30;;
10098;SDS011;5089;42.656;23.374;2022-09-04T06:23:39;8.93;;;7.37;;
10098;SDS011;5089;42.656;23.374;2022-09-04T06:26:23;12.17;;;9.20;;
10098;SDS011;5089;42.656;23.374;2022-09-04T06:29:09;12.70;;;10.20;;
10098;SDS011;5089;42.656;23.374;2022-09-04T06:31:58;11.97;;;10.13;;
10098;SDS011;5089;42.656;23.374;2022-09-04T06:34:42;11.80;;;9.70;;
10098;SDS011;5089;42.656;23.374;2022-09-04T06:37:24;11.13;;;9.93;;
10098;SDS011;5089;42.656;23.374;2022-09-04T06:40:07;14.13;;;9.30;;
10098;SDS011;5089;42.656;23.374;2022-09-04T06:42:52;11.33;;;9.20;;
10098;SDS011;5089;42.656;23.374;2022-09-04T06:45:34;10.90;;;9.47;;
10098;SDS011;5089;42.656;23.374;2022-09-04T06:48:17;10.80;;;9.50;;
10098;SDS011;5089;42.656;23.374;2022-09-04T06:50:55;10.77;;;9.60;;
10098;SDS011;5089;42.656;23.374;2022-09-04T06:53:36;10.53;;;9.47;;
10098;SDS011;5089;42.656;23.374;2022-09-04T06:56:09;14.07;;;9.90;;
10098;SDS011;5089;42.656;23.374;2022-09-04T06:58:56;10.77;;;8.97;;
10098;SDS011;5089;42.656;23.374;2022-09-04T07:01:36;13.33;;;11.53;;
10098;SDS011;5089;42.656;23.374;2022-09-04T07:04:19;13.93;;;10.13;;
10098;SDS011;5089;42.656;23.374;2022-09-04T07:06:59;11.70;;;10.03;;
10098;SDS011;5089;42.656;23.374;2022-09-04T07:09:34;10.70;;;9.30;;
10098;SDS011;5089;42.656;23.374;2022-09-04T07:12:20;11.77;;;10.53;;
10098;SDS011;5089;42.656;23.374;2022-09-04T07:15:14;13.67;;;8.10;;
10098;SDS011;5089;42.656;23.374;2022-09-04T07:17:59;9.67;;;8.30;;
10098;SDS011;5089;42.656;23.374;2022-09-04T07:20:39;9.13;;;8.33;;
10098;SDS011;5089;42.656;23.374;2022-09-04T07:23:16;9.13;;;8.33;;
10098;SDS011;5089;42.656;23.374;2022-09-04T07:25:49;10.20;;;8.57;;
10098;SDS011;5089;42.656;23.374;2022-09-04T07:31:33;10.87;;;9.73;;
10098;SDS011;5089;42.656;23.374;2022-09-04T07:34:07;10.57;;;9.57;;
10098;SDS011;5089;42.656;23.374;2022-09-04T07:36:43;11.20;;;10.10;;
10098;SDS011;5089;42.656;23.374;2022-09-04T07:39:19;10.47;;;8.53;;
10098;SDS011;5089;42.656;23.374;2022-09-04T07:41:52;15.70;;;10.17;;
10098;SDS011;5089;42.656;23.374;2022-09-04T07:44:28;10.90;;;9.80;;
10098;SDS011;5089;42.656;23.374;2022-09-04T07:47:01;11.63;;;10.43;;
10098;SDS011;5089;42.656;23.374;2022-09-04T07:49:41;12.10;;;9.97;;
10098;SDS011;5089;42.656;23.374;2022-09-04T07:52:23;10.30;;;9.23;;
10098;SDS011;5089;42.656;23.374;2022-09-04T07:55:13;11.97;;;10.70;;
10098;SDS011;5089;42.656;23.374;2022-09-04T07:57:52;10.90;;;9.80;;
10098;SDS011;5089;42.656;23.374;2022-09-04T08:00:48;10.13;;;8.40;;
10098;SDS011;5089;42.656;23.374;2022-09-04T08:03:34;13.07;;;10.60;;
10098;SDS011;5089;42.656;23.374;2022-09-04T08:06:15;12.37;;;11.07;;
10098;SDS011;5089;42.656;23.374;2022-09-04T08:08:56;11.50;;;9.60;;
10098;SDS011;5089;42.656;23.374;2022-09-04T08:11:44;15.90;;;12.80;;
10098;SDS011;5089;42.656;23.374;2022-09-04T08:14:24;16.37;;;11.23;;
10098;SDS011;5089;42.656;23.374;2022-09-04T08:17:01;11.80;;;10.30;;
10098;SDS011;5089;42.656;23.374;2022-09-04T08:19:51;14.13;;;10.43;;
10098;SDS011;5089;42.656;23.374;2022-09-04T08:22:30;13.03;;;10.63;;
10098;SDS011;5089;42.656;23.374;2022-09-04T08:25:14;13.43;;;10.77;;
10098;SDS011;5089;42.656;23.374;2022-09-04T08:30:46;12.47;;;10.40;;
10098;SDS011;5089;42.656;23.374;2022-09-04T08:36:21;10.53;;;9.53;;
10098;SDS011;5089;42.656;23.374;2022-09-04T08:38:57;10.53;;;9.53;;
10098;SDS011;5089;42.656;23.374;2022-09-04T08:41:40;16.50;;;9.80;;
10098;SDS011;5089;42.656;23.374;2022-09-04T08:47:44;11.60;;;9.00;;
10098;SDS011;5089;42.656;23.374;2022-09-04T08:56:57;10.57;;;7.97;;
10098;SDS011;5089;42.656;23.374;2022-09-04T08:59:54;9.20;;;8.13;;
10098;SDS011;5089;42.656;23.374;2022-09-04T09:09:13;7.40;;;6.80;;
10098;SDS011;5089;42.656;23.374;2022-09-04T09:12:09;13.97;;;7.43;;
10098;SDS011;5089;42.656;23.374;2022-09-04T09:15:15;7.57;;;6.80;;
10098;SDS011;5089;42.656;23.374;2022-09-04T09:18:00;4.23;;;3.90;;
10098;SDS011;5089;42.656;23.374;2022-09-04T09:20:28;6.37;;;5.77;;
10098;SDS011;5089;42.656;23.374;2022-09-04T09:26:07;6.67;;;6.00;;
10098;SDS011;5089;42.656;23.374;2022-09-04T09:32:03;6.90;;;6.30;;
10098;SDS011;5089;42.656;23.374;2022-09-04T09:35:12;5.97;;;5.40;;
10098;SDS011;5089;42.656;23.374;2022-09-04T09:47:29;5.13;;;4.73;;
10098;SDS011;5089;42.656;23.374;2022-09-04T09:50:21;5.77;;;5.30;;
10098;SDS011;5089;42.656;23.374;2022-09-04T09:53:23;6.67;;;5.50;;
10098;SDS011;5089;42.656;23.374;2022-09-04T10:02:37;5.97;;;5.33;;
10098;SDS011;5089;42.656;23.374;2022-09-04T10:05:31;5.60;;;5.20;;
10098;SDS011;5089;42.656;23.374;2022-09-04T10:08:33;6.00;;;5.50;;
10098;SDS011;5089;42.656;23.374;2022-09-04T10:26:24;5.53;;;5.10;;
10098;SDS011;5089;42.656;23.374;2022-09-04T10:29:13;8.47;;;5.53;;
10098;SDS011;5089;42.656;23.374;2022-09-04T10:35:17;7.57;;;5.10;;
10098;SDS011;5089;42.656;23.374;2022-09-04T10:37:54;5.90;;;4.90;;
10098;SDS011;5089;42.656;23.374;2022-09-04T10:40:34;5.37;;;4.87;;
10098;SDS011;5089;42.656;23.374;2022-09-04T10:43:14;4.80;;;4.40;;
10098;SDS011;5089;42.656;23.374;2022-09-04T10:45:57;4.80;;;4.40;;
10098;SDS011;5089;42.656;23.374;2022-09-04T10:48:35;6.10;;;4.57;;
10098;SDS011;5089;42.656;23.374;2022-09-04T10:57:42;4.90;;;4.40;;
10098;SDS011;5089;42.656;23.374;2022-09-04T11:00:19;4.90;;;4.40;;
10098;SDS011;5089;42.656;23.374;2022-09-04T11:06:04;4.73;;;4.23;;
10098;SDS011;5089;42.656;23.374;2022-09-04T11:09:02;5.40;;;4.50;;
10098;SDS011;5089;42.656;23.374;2022-09-04T11:24:37;4.40;;;4.10;;
10098;SDS011;5089;42.656;23.374;2022-09-04T11:30:35;4.00;;;3.70;;
10098;SDS011;5089;42.656;23.374;2022-09-04T11:36:22;4.10;;;3.73;;
10098;SDS011;5089;42.656;23.374;2022-09-04T11:39:25;4.23;;;3.67;;
10098;SDS011;5089;42.656;23.374;2022-09-04T11:42:27;4.00;;;3.70;;
10098;SDS011;5089;42.656;23.374;2022-09-04T11:45:06;4.43;;;4.10;;
10098;SDS011;5089;42.656;23.374;2022-09-04T11:48:01;4.17;;;3.87;;
10098;SDS011;5089;42.656;23.374;2022-09-04T11:51:04;4.10;;;3.70;;
10098;SDS011;5089;42.656;23.374;2022-09-04T11:53:50;6.00;;;5.40;;
10098;SDS011;5089;42.656;23.374;2022-09-04T11:56:37;5.30;;;4.73;;
10098;SDS011;5089;42.656;23.374;2022-09-04T12:02:31;4.40;;;4.00;;
10098;SDS011;5089;42.656;23.374;2022-09-04T12:05:23;3.97;;;3.67;;
10098;SDS011;5089;42.656;23.374;2022-09-04T12:08:09;6.00;;;5.40;;
10098;SDS011;5089;42.656;23.374;2022-09-04T12:11:04;6.90;;;5.20;;
10098;SDS011;5089;42.656;23.374;2022-09-04T12:14:02;5.60;;;4.33;;
10098;SDS011;5089;42.656;23.374;2022-09-04T12:16:53;4.17;;;3.87;;
10098;SDS011;5089;42.656;23.374;2022-09-04T12:19:50;5.33;;;4.27;;
10098;SDS011;5089;42.656;23.374;2022-09-04T12:25:50;4.40;;;4.10;;
10098;SDS011;5089;42.656;23.374;2022-09-04T12:28:50;4.07;;;3.60;;
10098;SDS011;5089;42.656;23.374;2022-09-04T12:32:04;4.40;;;4.00;;
10098;SDS011;5089;42.656;23.374;2022-09-04T12:34:55;3.80;;;3.50;;
10098;SDS011;5089;42.656;23.374;2022-09-04T12:37:50;5.27;;;3.63;;
10098;SDS011;5089;42.656;23.374;2022-09-04T12:40:33;5.23;;;4.10;;
10098;SDS011;5089;42.656;23.374;2022-09-04T12:43:20;4.40;;;4.00;;
10098;SDS011;5089;42.656;23.374;2022-09-04T12:45:59;3.80;;;3.50;;
10098;SDS011;5089;42.656;23.374;2022-09-04T12:48:43;4.20;;;3.80;;
10098;SDS011;5089;42.656;23.374;2022-09-04T12:51:21;4.23;;;3.83;;
10098;SDS011;5089;42.656;23.374;2022-09-04T12:53:56;4.17;;;3.60;;
10098;SDS011;5089;42.656;23.374;2022-09-04T12:56:44;4.37;;;3.30;;
10098;SDS011;5089;42.656;23.374;2022-09-04T12:59:24;3.57;;;3.30;;
10098;SDS011;5089;42.656;23.374;2022-09-04T13:02:02;4.50;;;3.07;;
10098;SDS011;5089;42.656;23.374;2022-09-04T13:04:38;3.40;;;3.10;;
10098;SDS011;5089;42.656;23.374;2022-09-04T13:07:28;3.40;;;3.10;;
10098;SDS011;5089;42.656;23.374;2022-09-04T13:10:09;6.43;;;5.27;;
10098;SDS011;5089;42.656;23.374;2022-09-04T13:12:47;4.67;;;3.57;;
10098;SDS011;5089;42.656;23.374;2022-09-04T13:15:26;6.40;;;3.63;;
10098;SDS011;5089;42.656;23.374;2022-09-04T13:18:09;6.23;;;4.90;;
10098;SDS011;5089;42.656;23.374;2022-09-04T13:20:49;9.73;;;7.63;;
10098;SDS011;5089;42.656;23.374;2022-09-04T13:23:32;5.50;;;5.00;;
10098;SDS011;5089;42.656;23.374;2022-09-04T13:26:20;4.23;;;3.57;;
10098;SDS011;5089;42.656;23.374;2022-09-04T13:29:02;4.00;;;3.60;;
10098;SDS011;5089;42.656;23.374;2022-09-04T13:31:48;7.10;;;6.00;;
10098;SDS011;5089;42.656;23.374;2022-09-04T13:34:25;8.00;;;7.10;;
10098;SDS011;5089;42.656;23.374;2022-09-04T13:37:09;6.73;;;4.97;;
10098;SDS011;5089;42.656;23.374;2022-09-04T13:39:50;4.97;;;4.57;;
10098;SDS011;5089;42.656;23.374;2022-09-04T13:42:32;12.87;;;8.93;;
10098;SDS011;5089;42.656;23.374;2022-09-04T13:45:10;12.93;;;8.70;;
10098;SDS011;5089;42.656;23.374;2022-09-04T13:47:41;5.23;;;4.73;;
10098;SDS011;5089;42.656;23.374;2022-09-04T13:50:16;7.20;;;5.90;;
10098;SDS011;5089;42.656;23.374;2022-09-04T13:52:49;8.13;;;5.13;;
10098;SDS011;5089;42.656;23.374;2022-09-04T13:55:21;6.43;;;4.90;;
10098;SDS011;5089;42.656;23.374;2022-09-04T13:57:51;9.13;;;7.60;;
10098;SDS011;5089;42.656;23.374;2022-09-04T14:00:23;9.27;;;7.80;;
10098;SDS011;5089;42.656;23.374;2022-09-04T14:02:55;9.37;;;8.47;;
10098;SDS011;5089;42.656;23.374;2022-09-04T14:05:26;6.43;;;5.77;;
10098;SDS011;5089;42.656;23.374;2022-09-04T14:07:59;4.97;;;4.47;;
10098;SDS011;5089;42.656;23.374;2022-09-04T14:10:44;5.27;;;3.70;;
10098;SDS011;5089;42.656;23.374;2022-09-04T14:13:37;4.63;;;4.23;;
10098;SDS011;5089;42.656;23.374;2022-09-04T14:16:16;6.50;;;4.13;;
10098;SDS011;5089;42.656;23.374;2022-09-04T14:21:58;5.23;;;3.50;;
10098;SDS011;5089;42.656;23.374;2022-09-04T14:24:36;6.60;;;4.53;;
10098;SDS011;5089;42.656;23.374;2022-09-04T14:27:13;17.13;;;12.77;;
10098;SDS011;5089;42.656;23.374;2022-09-04T14:29:52;5.47;;;4.97;;
10098;SDS011;5089;42.656;23.374;2022-09-04T14:32:27;5.10;;;4.40;;
10098;SDS011;5089;42.656;23.374;2022-09-04T14:35:06;7.07;;;3.37;;
10098;SDS011;5089;42.656;23.374;2022-09-04T14:37:47;3.67;;;3.37;;
10098;SDS011;5089;42.656;23.374;2022-09-04T14:40:44;4.87;;;3.80;;
10098;SDS011;5089;42.656;23.374;2022-09-04T14:43:21;5.63;;;3.40;;
10098;SDS011;5089;42.656;23.374;2022-09-04T14:46:04;17.83;;;15.47;;
10098;SDS011;5089;42.656;23.374;2022-09-04T14:48:37;7.47;;;5.83;;
10098;SDS011;5089;42.656;23.374;2022-09-04T14:51:10;5.13;;;3.53;;
10098;SDS011;5089;42.656;23.374;2022-09-04T14:53:44;5.40;;;3.43;;
10098;SDS011;5089;42.656;23.374;2022-09-04T14:56:20;3.87;;;3.53;;
10098;SDS011;5089;42.656;23.374;2022-09-04T14:58:53;7.33;;;4.10;;
10098;SDS011;5089;42.656;23.374;2022-09-04T15:01:24;4.27;;;3.53;;
10098;SDS011;5089;42.656;23.374;2022-09-04T15:03:54;3.37;;;3.07;;
10098;SDS011;5089;42.656;23.374;2022-09-04T15:06:25;3.57;;;3.10;;
10098;SDS011;5089;42.656;23.374;2022-09-04T15:11:47;4.00;;;3.70;;
10098;SDS011;5089;42.656;23.374;2022-09-04T15:14:17;4.03;;;3.70;;
10098;SDS011;5089;42.656;23.374;2022-09-04T15:16:57;4.73;;;3.40;;
10098;SDS011;5089;42.656;23.374;2022-09-04T15:19:36;10.00;;;7.87;;
10098;SDS011;5089;42.656;23.374;2022-09-04T15:22:11;21.67;;;16.67;;
10098;SDS011;5089;42.656;23.374;2022-09-04T15:24:49;6.57;;;4.70;;
10098;SDS011;5089;42.656;23.374;2022-09-04T15:27:23;6.43;;;4.03;;
10098;SDS011;5089;42.656;23.374;2022-09-04T15:30:00;4.77;;;4.27;;
10098;SDS011;5089;42.656;23.374;2022-09-04T15:32:31;3.80;;;3.50;;
10098;SDS011;5089;42.656;23.374;2022-09-04T15:37:51;10.90;;;7.57;;
10098;SDS011;5089;42.656;23.374;2022-09-04T15:40:30;5.20;;;3.90;;
10098;SDS011;5089;42.656;23.374;2022-09-04T15:43:11;3.73;;;3.43;;
10098;SDS011;5089;42.656;23.374;2022-09-04T15:45:52;4.43;;;3.10;;
10098;SDS011;5089;42.656;23.374;2022-09-04T15:48:26;6.00;;;3.77;;
10098;SDS011;5089;42.656;23.374;2022-09-04T15:51:01;6.90;;;4.43;;
10098;SDS011;5089;42.656;23.374;2022-09-04T15:53:38;3.90;;;3.27;;
10098;SDS011;5089;42.656;23.374;2022-09-04T15:56:22;4.10;;;3.20;;
10098;SDS011;5089;42.656;23.374;2022-09-04T15:58:58;3.33;;;3.03;;
10098;SDS011;5089;42.656;23.374;2022-09-04T16:01:33;3.40;;;3.10;;
10098;SDS011;5089;42.656;23.374;2022-09-04T16:04:11;4.33;;;3.40;;
10098;SDS011;5089;42.656;23.374;2022-09-04T16:06:47;3.10;;;2.77;;
10098;SDS011;5089;42.656;23.374;2022-09-04T16:09:19;2.80;;;2.60;;
10098;SDS011;5089;42.656;23.374;2022-09-04T16:11:54;6.17;;;3.60;;
10098;SDS011;5089;42.656;23.374;2022-09-04T16:14:30;3.10;;;2.80;;
10098;SDS011;5089;42.656;23.374;2022-09-04T16:17:05;4.40;;;2.70;;
10098;SDS011;5089;42.656;23.374;2022-09-04T16:19:37;4.33;;;2.67;;
10098;SDS011;5089;42.656;23.374;2022-09-04T16:22:17;3.13;;;2.93;;
10098;SDS011;5089;42.656;23.374;2022-09-04T16:24:55;4.87;;;2.70;;
10098;SDS011;5089;42.656;23.374;2022-09-04T16:27:36;3.00;;;2.70;;
10098;SDS011;5089;42.656;23.374;2022-09-04T16:30:13;3.57;;;3.27;;
10098;SDS011;5089;42.656;23.374;2022-09-04T16:32:54;3.40;;;3.10;;
10098;SDS011;5089;42.656;23.374;2022-09-04T16:35:21;3.83;;;3.50;;
10098;SDS011;5089;42.656;23.374;2022-09-04T16:37:52;3.90;;;2.90;;
10098;SDS011;5089;42.656;23.374;2022-09-04T16:40:29;2.93;;;2.73;;
10098;SDS011;5089;42.656;23.374;2022-09-04T16:43:02;3.83;;;3.53;;
10098;SDS011;5089;42.656;23.374;2022-09-04T16:45:44;7.80;;;6.50;;
10098;SDS011;5089;42.656;23.374;2022-09-04T16:48:17;5.93;;;4.40;;
10098;SDS011;5089;42.656;23.374;2022-09-04T16:50:53;5.93;;;3.00;;
10098;SDS011;5089;42.656;23.374;2022-09-04T16:53:31;3.23;;;2.77;;
10098;SDS011;5089;42.656;23.374;2022-09-04T16:56:04;3.40;;;3.10;;
10098;SDS011;5089;42.656;23.374;2022-09-04T16:58:44;3.40;;;3.10;;
10098;SDS011;5089;42.656;23.374;2022-09-04T17:01:26;3.13;;;2.93;;
10098;SDS011;5089;42.656;23.374;2022-09-04T17:04:05;3.40;;;3.10;;
10098;SDS011;5089;42.656;23.374;2022-09-04T17:06:53;3.30;;;3.10;;
10098;SDS011;5089;42.656;23.374;2022-09-04T17:09:34;7.97;;;3.70;;
10098;SDS011;5089;42.656;23.374;2022-09-04T17:14:59;4.33;;;3.93;;
10098;SDS011;5089;42.656;23.374;2022-09-04T17:17:45;6.13;;;4.00;;
10098;SDS011;5089;42.656;23.374;2022-09-04T17:20:19;4.50;;;3.50;;
10098;SDS011;5089;42.656;23.374;2022-09-04T17:22:52;3.93;;;3.63;;
10098;SDS011;5089;42.656;23.374;2022-09-04T17:25:28;4.00;;;3.70;;
10098;SDS011;5089;42.656;23.374;2022-09-04T17:28:01;3.90;;;3.60;;
10098;SDS011;5089;42.656;23.374;2022-09-04T17:30:47;4.13;;;3.57;;
10098;SDS011;5089;42.656;23.374;2022-09-04T17:33:20;4.27;;;3.80;;
10098;SDS011;5089;42.656;23.374;2022-09-04T17:36:08;4.53;;;4.00;;
10098;SDS011;5089;42.656;23.374;2022-09-04T17:38:42;4.30;;;3.70;;
10098;SDS011;5089;42.656;23.374;2022-09-04T17:41:15;4.40;;;3.43;;
10098;SDS011;5089;42.656;23.374;2022-09-04T17:44:06;4.63;;;3.70;;
10098;SDS011;5089;42.656;23.374;2022-09-04T17:46:53;5.90;;;4.47;;
10098;SDS011;5089;42.656;23.374;2022-09-04T17:49:35;5.03;;;4.60;;
10098;SDS011;5089;42.656;23.374;2022-09-04T17:52:07;5.07;;;4.00;;
10098;SDS011;5089;42.656;23.374;2022-09-04T17:54:36;3.93;;;3.63;;
10098;SDS011;5089;42.656;23.374;2022-09-04T17:57:08;4.33;;;3.90;;
10098;SDS011;5089;42.656;23.374;2022-09-04T17:59:38;4.17;;;3.70;;
10098;SDS011;5089;42.656;23.374;2022-09-04T18:02:11;5.83;;;3.80;;
10098;SDS011;5089;42.656;23.374;2022-09-04T18:04:49;4.67;;;3.90;;
10098;SDS011;5089;42.656;23.374;2022-09-04T18:07:23;3.93;;;3.63;;
10098;SDS011;5089;42.656;23.374;2022-09-04T18:09:59;4.40;;;4.00;;
10098;SDS011;5089;42.656;23.374;2022-09-04T18:12:35;4.87;;;3.93;;
10098;SDS011;5089;42.656;23.374;2022-09-04T18:15:09;6.10;;;4.37;;
10098;SDS011;5089;42.656;23.374;2022-09-04T18:17:44;4.40;;;4.00;;
10098;SDS011;5089;42.656;23.374;2022-09-04T18:20:20;8.43;;;3.70;;